Flight Track Log - Related Links

Times and Time Zones

All times are in EDT time to prevent confusion due to time zone crossing. See the RPA3253 flight status page for this flight to view local times or setup timezone preferences in your user account.

Time Position Orientation Groundspeed Altitude Reporting Facility
EDT Latitude Longitude Course Direction KTS MPH feet Rate Location/Type
Thu 10:39:09 PM 35.1911 -80.9508 251° West 159 183 1,500  Level Atlanta Center
Thu 10:40:16 PM 35.1331 -80.9606 188° South 222 255 3,200 2,016 Climbing Atlanta Center
Thu 10:41:00 PM 35.2667 -81.1784 270° West  Level FlightAware Approximate
Thu 10:41:17 PM 35.1164 -81.0450 256° West 278 320 5,800  Level Atlanta Center
Thu 10:42:00 PM 35.1976 -81.2463 199° South  Level FlightAware Approximate
Thu 10:42:30 PM 35.1022 -81.1497 261° West 312 359 9,300  Level Atlanta Center
Thu 10:43:00 PM 35.0970 -81.2799 192° South  Level FlightAware Approximate
Thu 10:43:30 PM 35.0919 -81.2492 263° West 312 359 11,500  Level Atlanta Center
Thu 10:44:00 PM 35.0535 -81.3877 251° West  Level FlightAware Approximate
Thu 10:44:30 PM 35.0672 -81.3564 254° West 317 365 13,300  Level Atlanta Center
Thu 10:45:30 PM 35.0342 -81.4667 250° West 338 389 15,100 1,900 Climbing Atlanta Center
Thu 10:46:30 PM 34.9989 -81.5869 250° West 366 421 17,100 2,000 Climbing Atlanta Center
Thu 10:47:30 PM 34.9578 -81.7172 249° West 382 440 19,100 1,950 Climbing Atlanta Center
Thu 10:48:30 PM 34.9183 -81.8400 249° West 387 445 21,000 1,550 Climbing Atlanta Center
Thu 10:49:30 PM 34.8533 -81.9481 234° Southwest 394 453 22,200 1,450 Climbing Atlanta Center
Thu 10:50:30 PM 34.7864 -82.0611 234° Southwest 407 468 23,900 1,450 Climbing Atlanta Center
Thu 10:51:30 PM 34.7256 -82.1686 235° Southwest 418 481 25,100 1,000 Climbing Atlanta Center
Thu 10:52:30 PM 34.6603 -82.2861 236° Southwest 429 494 25,900 900 Climbing Atlanta Center
Thu 10:53:30 PM 34.5892 -82.4114 235° Southwest 440 506 26,900 1,300 Climbing Atlanta Center
Thu 10:54:30 PM 34.5175 -82.5311 234° Southwest 445 512 28,500 1,600 Climbing Atlanta Center
Thu 10:55:30 PM 34.4378 -82.6611 233° Southwest 445 512 30,100 1,300 Climbing Atlanta Center
Thu 10:56:30 PM 34.3783 -82.7678 236° Southwest 440 506 31,100 1,000 Climbing Atlanta Center
Thu 10:57:30 PM 34.3106 -82.8869 235° Southwest 429 494 32,100 1,100 Climbing Atlanta Center
Thu 10:58:30 PM 34.2447 -83.0008 235° Southwest 423 487 33,300 1,100 Climbing Atlanta Center
Thu 10:59:30 PM 34.1789 -83.1122 234° Southwest 418 481 34,300 850 Climbing Atlanta Center
Thu 11:00:30 PM 34.1131 -83.2258 235° Southwest 418 481 35,000 700 Climbing Atlanta Center
Thu 11:01:30 PM 34.0489 -83.3367 235° Southwest 413 475 35,700 500 Climbing Atlanta Center
Thu 11:02:30 PM 33.9767 -83.4578 234° Southwest 413 475 36,000 150 Climbing Atlanta Center
Thu 11:03:30 PM 33.9061 -83.5733 234° Southwest 413 475 36,000  Level Atlanta Center
Thu 11:04:30 PM 33.8375 -83.6911 235° Southwest 425 489 36,000  Level Atlanta Center
Thu 11:05:30 PM 33.7689 -83.8064 234° Southwest 431 496 36,000  Level Atlanta Center
Thu 11:06:30 PM 33.7003 -83.9214 234° Southwest 431 496 36,000  Level Atlanta Center
Thu 11:07:30 PM 33.6314 -84.0389 235° Southwest 438 504 36,000  Level Atlanta Center
Thu 11:08:30 PM 33.5583 -84.1586 234° Southwest 438 504 36,000  Level Atlanta Center
Thu 11:09:30 PM 33.4956 -84.2656 235° Southwest 438 504 36,000  Level Atlanta Center
Thu 11:10:30 PM 33.4264 -84.3822 235° Southwest 438 504 36,000  Level Atlanta Center
Thu 11:11:30 PM 33.3550 -84.4964 233° Southwest 432 497 36,000  Level Atlanta Center
Thu 11:12:30 PM 33.2858 -84.6128 235° Southwest 432 497 36,000  Level Atlanta Center
Thu 11:13:30 PM 33.2100 -84.7414 235° Southwest 432 497 36,000  Level Atlanta Center
Thu 11:14:30 PM 33.1383 -84.8575 234° Southwest 432 497 36,000  Level Atlanta Center
Thu 11:15:30 PM 33.0706 -84.9733 235° Southwest 432 497 36,000  Level Atlanta Center
Thu 11:16:30 PM 33.0069 -85.0942 238° Southwest 432 497 36,000  Level Atlanta Center
Thu 11:17:30 PM 32.9414 -85.2022 234° Southwest 426 490 36,000  Level Atlanta Center
Thu 11:18:30 PM 32.8756 -85.3200 236° Southwest 426 490 36,000  Level Atlanta Center
Thu 11:19:30 PM 32.8158 -85.4403 239° Southwest 426 490 36,000  Level Atlanta Center
Thu 11:20:30 PM 32.7497 -85.5553 236° Southwest 431 496 36,000  Level Atlanta Center
Thu 11:21:30 PM 32.6856 -85.6750 238° Southwest 431 496 36,000  Level Atlanta Center
Thu 11:22:30 PM 32.6192 -85.7922 236° Southwest 436 502 36,000  Level Atlanta Center
Thu 11:23:30 PM 32.5528 -85.9142 237° Southwest 436 502 36,000  Level Atlanta Center
Thu 11:24:30 PM 32.4839 -86.0383 237° Southwest 441 507 36,000  Level Atlanta Center
Thu 11:25:30 PM 32.4194 -86.1550 237° Southwest 441 507 36,000 -150 Level Atlanta Center
Thu 11:26:30 PM 32.3483 -86.2736 235° Southwest 441 507 35,700 -950 Descending Atlanta Center
Thu 11:27:30 PM 32.2858 -86.3875 237° Southwest 435 501 34,100 -1,600 Descending Atlanta Center
Thu 11:28:30 PM 32.2269 -86.5089 240° Southwest 430 495 32,500 -1,600 Descending Atlanta Center
Thu 11:29:30 PM 32.1619 -86.6272 237° Southwest 430 495 30,900 -1,550 Descending Atlanta Center
Thu 11:30:30 PM 32.0931 -86.7306 232° Southwest 435 501 29,400 -1,550 Descending Atlanta Center
Thu 11:31:30 PM 32.0256 -86.8486 236° Southwest 440 506 27,800 -1,600 Descending Atlanta Center
Thu 11:32:30 PM 31.9603 -86.9642 236° Southwest 440 506 26,200 -535 Descending Atlanta Center
Thu 11:34:52 PM 31.7983 -87.2436 236° Southwest 425 489 26,000 -59 Descending Houston Center
Thu 11:35:53 PM 31.7331 -87.3589 236° Southwest 425 489 26,000  Level Houston Center
Thu 11:36:54 PM 31.6669 -87.4719 236° Southwest 423 487 26,000  Level Houston Center
Thu 11:37:55 PM 31.6008 -87.5872 236° Southwest 425 489 26,000  Level Houston Center
Thu 11:38:56 PM 31.5347 -87.7014 236° Southwest 427 491 26,000  Level Houston Center
Thu 11:39:56 PM 31.4672 -87.8150 235° Southwest 427 491 26,000  Level Houston Center
Thu 11:40:57 PM 31.4008 -87.9297 236° Southwest 427 491 26,000  Level Houston Center
Thu 11:41:58 PM 31.3347 -88.0425 236° Southwest 424 488 26,000  Level Houston Center
Thu 11:42:59 PM 31.2697 -88.1556 236° Southwest 425 489 26,000  Level Houston Center
Thu 11:44:00 PM 31.1892 -88.2878 235° Southwest 428 493 26,000  Level Houston Center
Thu 11:45:00 PM 31.1228 -88.4017 236° Southwest 439 505 26,000  Level Houston Center
Thu 11:46:01 PM 31.0547 -88.5114 234° Southwest 423 487 26,000  Level Houston Center
Thu 11:47:02 PM 30.9892 -88.6225 235° Southwest 427 491 26,000  Level Houston Center
Thu 11:48:03 PM 30.9217 -88.7328 235° Southwest 423 487 26,000  Level Houston Center
Thu 11:49:03 PM 30.8556 -88.8444 235° Southwest 422 486 26,000  Level Houston Center
Thu 11:50:04 PM 30.7858 -88.9603 235° Southwest 423 487 26,000 -295 Level Houston Center
Thu 11:51:05 PM 30.7192 -89.0719 235° Southwest 422 486 25,400 -1,377 Descending Houston Center
Thu 11:52:06 PM 30.6514 -89.1828 235° Southwest 422 486 23,200 -2,132 Descending Houston Center
Thu 11:53:06 PM 30.5886 -89.2892 236° Southwest 405 466 21,100 -2,132 Descending Houston Center
Thu 11:54:07 PM 30.5250 -89.3936 235° Southwest 398 458 18,900 -2,066 Descending Houston Center
Thu 11:55:08 PM 30.4622 -89.4983 235° Southwest 397 457 16,900 -2,033 Descending Houston Center
Thu 11:56:08 PM 30.4006 -89.5983 234° Southwest 383 441 14,800 -1,983 Descending Houston Center
Thu 11:57:09 PM 30.3414 -89.6964 235° Southwest 372 428 12,900 -1,869 Descending Houston Center
Thu 11:58:10 PM 30.2947 -89.7950 241° Southwest 341 392 11,000 -2,000 Descending Houston Center
Thu 11:58:48 PM 30.2772 -89.8661 254° West 300 345 9,600 -1,758 Descending Houston Center
Thu 11:59:49 PM 30.2550 -89.9514 253° West 278 320 8,100 -1,513 Descending Houston Center
Fri 12:00:43 AM 30.2344 -90.0294 253° West 271 312 6,700 -1,357 Descending Houston Center
Fri 12:01:44 AM 30.2181 -90.1022 255° West 225 259 5,500 -1,180 Descending Houston Center
Fri 12:02:45 AM 30.2011 -90.1656 253° West 203 234 4,300 -1,190 Descending Houston Center
Fri 12:03:45 AM 30.1539 -90.1961 209° Southwest 205 236 3,100 -1,091 Descending Houston Center
Fri 12:04:46 AM 30.1003 -90.2153 197° South 185 213 2,100 -942 Descending Houston Center
Fri 12:05:46 AM 30.0547 -90.2292 195° South 165 190 1,200 -887 Descending Houston Center
Fri 12:06:41 AM 30.0217 -90.2400 196° South 139 160 400 -873 Descending Houston Center

Login

Don't have an account? Register now (free) for customized features, flight alerts, and more!